Adair Village, Oregon
Current Conditions -  °F | °C
As of 7:35 PM on Saturday 20 Dec 2014 (Local Time) from KCVO Reporting Station
Overcast Overcast  
Wind Chill: 57°   Ceiling: 3100
Heat Index: 57°   Visibility: 10mi
Dew Point: 54°   Wind: 14mph
Humidity: 88%   Direction: 190°S
Pressure: 29.78"   Gusts: NA
Location:  44.6364°N, 123.28°W
Report Text: KCVO 210335Z AUTO 19012KT 10SM FEW021 BKN031 OVC050 14/12 A2978 RMK AO1 P0003
Loading
Personal Weather Stations






























Interactive Weather Map New forecast layout! Learn more

10-Day Weather Forecast

Advertisements
Track Severe Weather on mobile